Time;durP1;ratioP1;P1;durP2;ratioP2;P2;SDS_P1;SDS_P2;PMS_P1;PMS_P2;Temp;Humidity;BMP_temperature;BMP_pressure;BME280_temperature;BME280_humidity;BME280_pressure;Samples;Min_cycle;Max_cycle;Signal;HPM_P1;HPM_P2
2022/09/11 00:00:56;;;;;;;23.30;13.68;;;;;;;14.30;100.00;101641.59;4951321;29;20039;-69
2022/09/11 00:03:23;;;;;;;28.98;14.18;;;;;;;14.35;100.00;101647.19;4951620;28;20037;-68
2022/09/11 00:05:49;;;;;;;22.40;13.82;;;;;;;14.38;100.00;101650.31;4951334;29;20525;-69
2022/09/11 00:08:17;;;;;;;24.23;14.70;;;;;;;14.40;100.00;101644.75;4951048;29;20045;-69
2022/09/11 00:10:47;;;;;;;24.45;14.73;;;;;;;14.46;100.00;101650.13;4933303;29;20118;-68
2022/09/11 00:13:15;;;;;;;28.95;14.82;;;;;;;14.46;100.00;101642.09;4932507;29;20098;-68
2022/09/11 00:15:43;;;;;;;25.38;15.90;;;;;;;14.50;100.00;101642.50;4932839;29;20030;-68
2022/09/11 00:18:12;;;;;;;26.80;16.10;;;;;;;14.50;100.00;101645.19;4932662;29;20387;-68
2022/09/11 00:20:37;;;;;;;27.08;16.05;;;;;;;14.51;100.00;101638.78;4932824;29;20131;-68
2022/09/11 00:23:04;;;;;;;26.58;15.93;;;;;;;14.46;100.00;101628.66;4932641;29;20023;-67
2022/09/11 00:25:33;;;;;;;26.92;16.38;;;;;;;14.49;100.00;101632.81;4932865;29;20032;-67
2022/09/11 00:27:59;;;;;;;24.00;14.15;;;;;;;14.47;100.00;101638.34;4950937;28;20035;-67
2022/09/11 00:30:25;;;;;;;24.63;14.70;;;;;;;14.46;100.00;101638.56;4951028;29;20035;-67
2022/09/11 00:32:51;;;;;;;29.77;15.45;;;;;;;14.44;100.00;101636.09;4950737;29;20070;-67
2022/09/11 00:35:16;;;;;;;23.10;13.73;;;;;;;14.43;100.00;101649.69;4950895;28;20118;-67
2022/09/11 00:37:42;;;;;;;24.83;14.60;;;;;;;14.43;100.00;101644.34;4950741;29;20035;-68
2022/09/11 00:40:08;;;;;;;25.75;15.45;;;;;;;14.43;100.00;101639.78;4950813;28;20039;-68
2022/09/11 00:42:33;;;;;;;24.92;14.63;;;;;;;14.43;100.00;101647.00;4950805;29;20034;-69
2022/09/11 00:45:02;;;;;;;24.70;14.77;;;;;;;14.41;100.00;101643.72;4950732;29;20036;-68
2022/09/11 00:47:29;;;;;;;23.05;14.00;;;;;;;14.38;100.00;101649.47;4950811;29;20067;-67
2022/09/11 00:50:01;;;;;;;28.45;15.98;;;;;;;14.32;100.00;101653.78;4950976;29;20038;-67
2022/09/11 00:52:32;;;;;;;24.88;14.70;;;;;;;14.31;100.00;101640.59;4932468;29;20028;-68
2022/09/11 00:55:13;;;;;;;26.40;16.05;;;;;;;14.23;100.00;101637.06;4932188;29;20036;-68
2022/09/11 00:57:43;;;;;;;25.58;15.45;;;;;;;14.21;100.00;101640.97;4950503;29;20356;-68
2022/09/11 01:00:09;;;;;;;26.60;15.32;;;;;;;14.14;100.00;101645.47;4950624;28;20034;-68
2022/09/11 01:02:37;;;;;;;26.80;14.20;;;;;;;14.13;100.00;101641.97;4934815;29;20123;-69
2022/09/11 01:05:03;;;;;;;23.73;13.98;;;;;;;13.96;100.00;101630.78;4954335;29;20070;-69
2022/09/11 01:07:29;;;;;;;21.65;13.68;;;;;;;14.05;100.00;101647.53;4954411;28;20487;-69
2022/09/11 01:09:56;;;;;;;25.13;14.48;;;;;;;14.05;100.00;101662.78;4954322;28;20039;-69
2022/09/11 01:12:35;;;;;;;23.50;12.77;;;;;;;14.01;100.00;101656.97;4954028;29;20741;-69
2022/09/11 01:15:11;;;;;;;21.33;12.10;;;;;;;13.95;100.00;101661.28;4954322;29;20031;-68
2022/09/11 01:18:01;;;;;;;23.67;14.23;;;;;;;13.92;100.00;101667.06;4954083;29;20043;-68
2022/09/11 01:20:58;;;;;;;26.15;14.38;;;;;;;13.89;100.00;101670.13;4954298;28;20103;-68
2022/09/11 01:23:59;;;;;;;24.55;13.20;;;;;;;13.88;100.00;101665.78;4954213;29;20027;-68
2022/09/11 01:26:37;;;;;;;26.03;15.57;;;;;;;13.85;100.00;101668.88;4954327;28;20542;-68
2022/09/11 01:29:21;;;;;;;23.58;15.00;;;;;;;13.78;100.00;101666.16;4954210;29;20035;-68
2022/09/11 01:32:03;;;;;;;25.95;14.52;;;;;;;13.75;100.00;101666.56;4953987;29;20526;-68
2022/09/11 01:34:45;;;;;;;24.50;14.27;;;;;;;13.73;100.00;101673.16;4953984;28;20445;-68
2022/09/11 01:37:22;;;;;;;22.60;14.55;;;;;;;13.71;100.00;101667.16;4936882;29;20059;-68
2022/09/11 01:40:00;;;;;;;26.00;13.80;;;;;;;13.66;100.00;101672.28;4953799;29;20035;-68
2022/09/11 01:42:30;;;;;;;22.27;13.68;;;;;;;13.65;100.00;101674.13;4953909;29;20055;-68
2022/09/11 01:44:56;;;;;;;21.58;12.68;;;;;;;13.61;100.00;101672.03;4953591;28;20086;-68
2022/09/11 01:47:23;;;;;;;21.98;13.48;;;;;;;13.59;100.00;101678.41;4953899;28;20099;-68
2022/09/11 01:50:09;;;;;;;25.55;14.68;;;;;;;13.57;100.00;101677.78;4953636;28;20475;-68
2022/09/11 01:52:53;;;;;;;25.25;14.50;;;;;;;13.54;100.00;101675.47;4953633;29;20031;-68
2022/09/11 01:55:36;;;;;;;24.27;13.35;;;;;;;13.52;100.00;101682.09;4953558;29;20027;-68
2022/09/11 01:58:09;;;;;;;25.15;13.82;;;;;;;13.47;100.00;101690.72;4953585;28;20087;-68
2022/09/11 02:00:38;;;;;;;23.50;13.60;;;;;;;13.34;100.00;101664.63;4953500;29;20029;-68
2022/09/11 02:03:14;;;;;;;25.73;15.23;;;;;;;13.46;100.00;101688.22;4953307;29;20192;-68
2022/09/11 02:05:48;;;;;;;24.33;14.68;;;;;;;13.38;100.00;101687.31;4953263;29;20098;-68
2022/09/11 02:08:19;;;;;;;23.92;13.57;;;;;;;13.38;100.00;101690.00;4953191;28;20383;-68
2022/09/11 02:10:51;;;;;;;23.75;12.85;;;;;;;13.36;100.00;101683.19;4953302;29;20098;-68
2022/09/11 02:13:28;;;;;;;;;;;;;;;13.39;100.00;101682.81;4953150;29;20106;-68
2022/09/11 02:16:03;;;;;;;26.00;13.85;;;;;;;13.37;100.00;101684.84;4952814;29;19959;-68
2022/09/11 02:18:54;;;;;;;25.17;15.10;;;;;;;13.34;100.00;101683.41;4953144;29;20031;-68
2022/09/11 02:21:19;;;;;;;27.60;18.17;;;;;;;13.33;100.00;101681.72;4953097;29;20042;-68
2022/09/11 02:23:45;;;;;;;29.52;16.85;;;;;;;13.32;100.00;101680.06;4953021;29;20023;-68
2022/09/11 02:26:12;;;;;;;28.38;16.55;;;;;;;13.33;100.00;101688.94;4953055;28;20517;-68
2022/09/11 02:28:38;;;;;;;30.20;17.63;;;;;;;13.33;100.00;101688.94;4953139;28;20077;-68
2022/09/11 02:31:04;;;;;;;27.65;15.70;;;;;;;13.33;100.00;101687.06;4935389;29;20035;-68
2022/09/11 02:33:35;;;;;;;29.77;15.98;;;;;;;13.35;100.00;101689.56;4952887;28;20039;-68
2022/09/11 02:36:23;;;;;;;30.57;18.67;;;;;;;13.35;100.00;101692.25;4952904;29;20026;-68
2022/09/11 02:39:34;;;;;;;25.42;15.10;;;;;;;13.32;100.00;101690.78;4916376;29;20043;-68
2022/09/11 02:42:21;;;;;;;27.15;16.45;;;;;;;13.33;100.00;101699.66;4952848;29;20047;-68
2022/09/11 02:45:19;;;;;;;27.90;16.08;;;;;;;13.30;100.00;101700.88;4952780;29;20503;-68
2022/09/11 02:48:17;;;;;;;29.80;14.73;;;;;;;13.29;100.00;101699.22;4952836;29;20065;-68
2022/09/11 02:50:48;;;;;;;29.83;18.35;;;;;;;13.23;100.00;101696.44;4930329;29;20394;-68
2022/09/11 02:53:26;;;;;;;31.48;17.00;;;;;;;13.27;100.00;101705.78;4952504;29;20035;-68
2022/09/11 02:56:03;;;;;;;26.50;14.00;;;;;;;13.21;100.00;101702.00;4952488;29;20039;-68
2022/09/11 02:58:37;;;;;;;25.73;15.23;;;;;;;13.23;100.00;101709.84;4952427;28;20024;-68
2022/09/11 03:01:03;;;;;;;25.50;14.45;;;;;;;13.19;100.00;101705.91;4952679;29;20121;-68
2022/09/11 03:03:40;;;;;;;26.13;15.23;;;;;;;13.12;100.00;101709.34;4952516;29;20031;-68
2022/09/11 03:06:09;;;;;;;26.92;14.65;;;;;;;13.06;100.00;101707.44;4952303;28;20475;-68
2022/09/11 03:08:34;;;;;;;25.25;14.35;;;;;;;12.94;100.00;101687.53;4952188;29;20047;-68
2022/09/11 03:11:00;;;;;;;27.60;14.30;;;;;;;13.00;100.00;101702.84;4952434;28;20042;-68
2022/09/11 03:13:25;;;;;;;30.15;18.02;;;;;;;13.00;100.00;101702.03;4951909;29;20051;-68
2022/09/11 03:15:51;;;;;;;27.13;16.52;;;;;;;13.03;100.00;101715.84;4952202;28;20045;-68
2022/09/11 03:18:16;;;;;;;28.55;16.42;;;;;;;13.05;100.00;101718.34;4952191;29;20031;-68
2022/09/11 03:20:46;;;;;;;28.98;19.58;;;;;;;13.06;100.00;101714.66;4951929;28;20046;-68
2022/09/11 03:23:12;;;;;;;29.05;17.77;;;;;;;13.06;100.00;101714.66;4951995;29;20039;-68
2022/09/11 03:25:39;;;;;;;34.88;14.48;;;;;;;13.04;100.00;101716.69;4951716;28;20058;-68
2022/09/11 03:28:04;;;;;;;27.75;14.98;;;;;;;13.00;100.00;101712.75;4951916;29;20392;-68
2022/09/11 03:30:30;;;;;;;28.15;15.32;;;;;;;12.94;100.00;101706.28;4951762;29;20062;-68
2022/09/11 03:32:57;;;;;;;29.48;17.70;;;;;;;12.98;100.00;101717.44;4951791;28;20074;-68
2022/09/11 03:35:23;;;;;;;26.45;15.27;;;;;;;12.97;100.00;101719.31;4951509;28;20109;-68
2022/09/11 03:37:49;;;;;;;27.05;13.23;;;;;;;12.93;100.00;101716.16;4951548;29;20042;-68
2022/09/11 03:40:15;;;;;;;25.02;13.68;;;;;;;12.85;100.00;101708.25;4951730;28;20125;-68
2022/09/11 03:42:40;;;;;;;23.48;15.10;;;;;;;12.86;100.00;101715.28;4951738;29;20082;-68
2022/09/11 03:45:06;;;;;;;25.58;14.65;;;;;;;12.86;100.00;101720.66;4951639;28;20386;-68
2022/09/11 03:47:31;;;;;;;25.83;13.50;;;;;;;12.84;100.00;101721.84;4951546;29;20039;-68
2022/09/11 03:49:56;;;;;;;27.35;15.77;;;;;;;12.80;100.00;101723.25;4951407;28;20031;-68
2022/09/11 03:52:22;;;;;;;26.15;14.02;;;;;;;12.75;100.00;101731.00;4951384;29;20031;-69
2022/09/11 03:54:47;;;;;;;26.83;15.35;;;;;;;12.74;100.00;101726.69;4951380;28;20035;-69
2022/09/11 03:57:13;;;;;;;24.38;13.73;;;;;;;12.75;100.00;101731.00;4951478;29;20066;-69
2022/09/11 03:59:38;;;;;;;29.83;17.08;;;;;;;12.74;100.00;101730.19;4951424;29;20122;-69
2022/09/11 04:02:04;;;;;;;27.60;16.92;;;;;;;12.75;100.00;101734.50;4934201;29;20065;-69
2022/09/11 04:04:29;;;;;;;25.55;14.15;;;;;;;12.76;100.00;101730.84;4933975;29;20509;-69
2022/09/11 04:06:55;;;;;;;30.08;14.68;;;;;;;12.71;100.00;101731.38;4951207;28;20039;-67
2022/09/11 04:09:20;;;;;;;21.27;10.93;;;;;;;12.71;100.00;101730.56;4951073;29;20039;-66
2022/09/11 04:11:49;;;;;;;26.40;13.00;;;;;;;12.61;100.00;101725.50;4951098;29;20086;-66
2022/09/11 04:14:15;;;;;;;25.88;13.75;;;;;;;12.60;100.00;101736.38;4951225;29;20509;-66
2022/09/11 04:16:40;;;;;;;31.80;14.85;;;;;;;12.58;100.00;101735.78;4951087;28;20043;-66
2022/09/11 04:19:05;;;;;;;33.05;16.83;;;;;;;12.58;100.00;101739.28;4951109;28;20027;-66
2022/09/11 04:21:33;;;;;;;31.27;17.20;;;;;;;12.59;100.00;101738.25;4951168;28;20027;-66
2022/09/11 04:23:59;;;;;;;30.95;15.80;;;;;;;12.51;100.00;101716.94;4951075;29;20054;-67
2022/09/11 04:26:26;;;;;;;26.50;13.00;;;;;;;12.57;100.00;101731.41;4950996;29;20511;-66
2022/09/11 04:28:52;;;;;;;27.60;13.85;;;;;;;12.58;100.00;101728.56;4950980;29;20725;-66
2022/09/11 04:31:19;;;;;;;32.03;17.77;;;;;;;12.50;100.00;101723.31;4950828;28;20049;-66
2022/09/11 04:33:45;;;;;;;29.08;17.63;;;;;;;12.46;100.00;101722.84;4950877;28;20031;-66
2022/09/11 04:36:13;;;;;;;37.17;18.05;;;;;;;12.45;100.00;101729.22;4950849;29;20066;-66
2022/09/11 04:38:40;;;;;;;28.83;15.88;;;;;;;12.44;100.00;101726.72;4950256;29;20035;-66
2022/09/11 04:41:06;;;;;;;32.92;19.00;;;;;;;12.46;100.00;101727.38;4950967;29;20031;-66
2022/09/11 04:43:33;;;;;;;33.90;20.05;;;;;;;12.45;100.00;101734.59;4950946;29;20050;-66
2022/09/11 04:46:08;;;;;;;40.08;16.98;;;;;;;12.47;100.00;101735.25;4950789;28;20030;-66
2022/09/11 04:48:35;;;;;;;52.63;19.20;;;;;;;12.45;100.00;101734.59;4950756;28;20054;-66
2022/09/11 04:51:07;;;;;;;44.05;18.40;;;;;;;12.45;100.00;101736.44;4950858;28;20082;-74
2022/09/11 04:53:33;;;;;;;30.45;18.38;;;;;;;12.47;100.00;101742.41;4950603;29;20023;-68
2022/09/11 04:56:09;;;;;;;39.72;18.17;;;;;;;12.48;100.00;101738.72;4950795;29;20065;-66
2022/09/11 04:58:35;;;;;;;32.00;15.85;;;;;;;12.49;100.00;101741.19;4950554;28;20039;-66
2022/09/11 05:01:00;;;;;;;34.92;18.35;;;;;;;12.49;100.00;101741.19;4950681;29;20766;-66
2022/09/11 05:03:26;;;;;;;34.22;17.85;;;;;;;12.49;100.00;101738.53;4950651;29;20035;-66
2022/09/11 05:05:51;;;;;;;48.17;15.90;;;;;;;12.48;100.00;101742.22;4950709;29;20146;-69
2022/09/11 05:08:19;;;;;;;41.47;17.00;;;;;;;12.47;100.00;101742.41;4950447;29;20039;-66
2022/09/11 05:10:46;;;;;;;46.28;17.30;;;;;;;12.46;100.00;101738.09;4950553;29;20031;-66
2022/09/11 05:13:13;;;;;;;38.83;18.05;;;;;;;12.44;100.00;101740.97;4950169;29;20087;-66
2022/09/11 05:15:38;;;;;;;33.38;14.73;;;;;;;12.46;100.00;101740.75;4950737;29;20106;-67
2022/09/11 05:18:03;;;;;;;43.88;15.82;;;;;;;12.43;100.00;101744.63;4950465;29;20541;-66
2022/09/11 05:20:29;;;;;;;27.65;14.32;;;;;;;12.43;100.00;101757.19;4950630;29;20568;-69
2022/09/11 05:22:55;;;;;;;31.33;12.65;;;;;;;12.40;100.00;101757.56;4950287;29;20031;-67
2022/09/11 05:25:21;;;;;;;31.40;14.15;;;;;;;12.40;100.00;101760.25;4950425;28;20529;-67
2022/09/11 05:27:46;;;;;;;26.15;13.27;;;;;;;12.39;100.00;101767.44;4950458;29;20034;-67
2022/09/11 05:30:12;;;;;;;25.83;13.90;;;;;;;12.38;100.00;101767.63;4950264;29;20589;-67
2022/09/11 05:32:38;;;;;;;26.23;12.88;;;;;;;12.39;100.00;101770.13;4950201;29;20031;-69
2022/09/11 05:35:03;;;;;;;26.52;13.57;;;;;;;12.36;100.00;101780.34;4950201;28;20034;-65
2022/09/11 05:37:29;;;;;;;29.17;13.05;;;;;;;12.33;100.00;101764.66;4950166;29;20035;-65
2022/09/11 05:39:54;;;;;;;24.05;13.73;;;;;;;12.37;100.00;101779.34;4950219;29;20122;-66
2022/09/11 05:42:20;;;;;;;23.25;13.00;;;;;;;12.38;100.00;101791.69;4950257;29;20166;-66
2022/09/11 05:44:46;;;;;;;25.75;14.65;;;;;;;12.39;100.00;101793.34;4950285;29;20035;-66
2022/09/11 05:47:13;;;;;;;26.02;12.18;;;;;;;12.38;100.00;101799.72;4950307;29;20031;-67
2022/09/11 05:49:38;;;;;;;25.52;12.98;;;;;;;12.37;100.00;101798.91;4953080;28;20027;-67
2022/09/11 05:52:04;;;;;;;26.88;11.52;;;;;;;12.35;100.00;101794.75;4953806;29;20058;-67
2022/09/11 05:54:29;;;;;;;27.52;14.98;;;;;;;12.37;100.00;101800.75;4953597;28;20122;-67
2022/09/11 05:56:54;;;;;;;28.17;13.70;;;;;;;12.34;100.00;101806.44;4953384;29;20042;-66
2022/09/11 05:59:20;;;;;;;25.98;11.95;;;;;;;12.35;100.00;101808.13;4953464;28;20098;-66
2022/09/11 06:01:46;;;;;;;31.52;14.13;;;;;;;12.38;100.00;101813.91;4953386;29;20031;-66
2022/09/11 06:04:12;;;;;;;23.60;12.30;;;;;;;12.39;100.00;101820.09;4936353;29;20027;-67
2022/09/11 06:06:38;;;;;;;23.80;13.02;;;;;;;12.43;100.00;101816.06;4953297;29;20526;-67
2022/09/11 06:09:06;;;;;;;22.60;11.55;;;;;;;12.44;100.00;101820.38;4953029;29;20035;-66
2022/09/11 06:11:32;;;;;;;22.27;12.07;;;;;;;12.47;100.00;101825.34;4953080;28;20082;-67
2022/09/11 06:13:58;;;;;;;22.85;13.45;;;;;;;12.48;100.00;101832.38;4952987;29;20042;-66
2022/09/11 06:16:24;;;;;;;20.17;10.80;;;;;;;12.51;100.00;101842.72;4953198;28;20061;-67
2022/09/11 06:18:50;;;;;;;21.95;10.82;;;;;;;12.49;100.00;101840.22;4953274;28;20432;-67
2022/09/11 06:21:18;;;;;;;20.60;11.18;;;;;;;12.56;100.00;101848.34;4953075;29;20038;-67
2022/09/11 06:23:48;;;;;;;24.40;12.82;;;;;;;12.58;100.00;101837.47;4953081;29;20023;-67
2022/09/11 06:26:16;;;;;;;25.27;13.45;;;;;;;12.62;100.00;101841.41;4952992;28;20039;-67
2022/09/11 06:28:41;;;;;;;32.97;13.60;;;;;;;12.68;100.00;101835.31;4952982;29;20489;-68
2022/09/11 06:31:10;;;;;;;20.42;11.85;;;;;;;12.76;100.00;101839.72;4952962;29;20039;-67
2022/09/11 06:33:38;;;;;;;26.92;11.13;;;;;;;12.83;100.00;101846.00;4952855;29;20024;-68
2022/09/11 06:36:05;;;;;;;23.77;12.38;;;;;;;12.89;100.00;101847.91;4934565;29;20040;-69
2022/09/11 06:38:31;;;;;;;29.85;14.35;;;;;;;12.93;100.00;101849.22;4934401;29;20508;-68
2022/09/11 06:40:58;;;;;;;26.35;12.07;;;;;;;12.98;100.00;101844.13;4934586;29;20126;-68
2022/09/11 06:43:23;;;;;;;23.90;12.38;;;;;;;13.02;100.00;101853.47;4952957;29;20109;-68
2022/09/11 06:45:50;;;;;;;28.63;11.85;;;;;;;13.05;100.00;101853.09;4952502;29;20139;-68
2022/09/11 06:48:17;;;;;;;25.67;11.57;;;;;;;13.09;100.00;101851.66;4952589;29;20043;-65
2022/09/11 06:50:42;;;;;;;27.25;13.23;;;;;;;13.14;100.00;101854.63;4952650;29;20043;-65
2022/09/11 06:53:09;;;;;;;28.20;12.45;;;;;;;13.21;100.00;101862.75;4952393;29;20042;-64
2022/09/11 06:55:34;;;;;;;24.75;15.02;;;;;;;13.24;100.00;101858.84;4952583;29;20482;-65
2022/09/11 06:58:01;;;;;;;24.30;13.27;;;;;;;13.25;100.00;101860.50;4952491;29;20097;-64
2022/09/11 07:00:27;;;;;;;27.13;12.57;;;;;;;13.29;100.00;101861.81;4951855;28;20027;-65
2022/09/11 07:02:52;;;;;;;29.42;14.10;;;;;;;13.31;100.00;101874.00;4952372;28;20434;-64
2022/09/11 07:05:18;;;;;;;20.58;12.77;;;;;;;13.31;100.00;101865.97;4952213;28;20070;-65
2022/09/11 07:07:44;;;;;;;25.20;11.60;;;;;;;13.42;100.00;101869.19;4952127;29;20027;-65
2022/09/11 07:10:09;;;;;;;32.13;14.73;;;;;;;13.47;100.00;101872.13;4952112;29;20046;-64
2022/09/11 07:12:37;;;;;;;28.35;14.45;;;;;;;13.53;100.00;101871.34;4952110;29;20102;-65
2022/09/11 07:15:07;;;;;;;23.73;13.95;;;;;;;13.59;100.00;101867.88;4933874;29;20399;-64
2022/09/11 07:17:35;;;;;;;29.10;14.00;;;;;;;13.65;100.00;101861.78;4952238;29;20078;-65
2022/09/11 07:20:01;;;;;;;36.78;14.88;;;;;;;13.71;100.00;101860.19;4933638;29;20090;-64
2022/09/11 07:22:28;;;;;;;32.75;15.20;;;;;;;13.75;100.00;101864.97;4933745;29;20036;-65
2022/09/11 07:24:53;;;;;;;28.98;14.23;;;;;;;13.75;100.00;101851.56;4951900;29;20573;-65
2022/09/11 07:27:20;;;;;;;25.27;14.05;;;;;;;13.80;100.00;101850.97;4951825;28;20082;-64
2022/09/11 07:29:45;;;;;;;27.27;14.38;;;;;;;13.86;100.00;101847.53;4951359;29;20510;-65
2022/09/11 07:32:10;;;;;;;25.17;14.82;;;;;;;13.92;100.00;101856.66;4951092;29;20027;-64
2022/09/11 07:34:36;;;;;;;26.08;13.10;;;;;;;13.98;100.00;101858.53;4951898;29;20617;-65
2022/09/11 07:37:01;;;;;;;25.25;14.32;;;;;;;14.03;100.00;101856.09;4951288;29;20066;-65
2022/09/11 07:39:27;;;;;;;29.88;15.02;;;;;;;14.08;100.00;101868.94;4951154;29;20047;-66
2022/09/11 07:41:52;;;;;;;31.35;16.00;;;;;;;14.08;100.00;101866.25;4951361;29;20435;-66
2022/09/11 07:44:18;;;;;;;38.80;16.23;;;;;;;14.11;100.00;101869.38;4951255;29;20078;-66
2022/09/11 07:46:43;;;;;;;29.80;15.75;;;;;;;14.17;100.00;101868.59;4951134;29;20035;-66
2022/09/11 07:49:10;;;;;;;28.00;14.85;;;;;;;14.24;100.00;101868.63;4951509;29;20046;-66
2022/09/11 07:51:38;;;;;;;26.77;14.90;;;;;;;14.27;100.00;101864.72;4951788;29;20113;-66
2022/09/11 07:54:04;;;;;;;29.33;15.95;;;;;;;14.28;100.00;101864.56;4951256;29;20035;-66
2022/09/11 07:56:30;;;;;;;30.30;16.30;;;;;;;14.37;100.00;101871.41;4941089;29;20022;-64
2022/09/11 07:58:56;;;;;;;29.83;15.98;;;;;;;14.44;100.00;101872.28;4932856;29;20027;-64
2022/09/11 08:01:29;;;;;;;29.75;16.40;;;;;;;14.45;100.00;101870.44;4932648;29;20039;-63
2022/09/11 08:04:00;;;;;;;42.03;17.85;;;;;;;14.48;100.00;101878.09;4950718;29;20479;-64
2022/09/11 08:06:28;;;;;;;29.75;17.90;;;;;;;14.54;100.00;101885.41;4950824;28;20046;-67
2022/09/11 08:08:57;;;;;;;26.50;15.88;;;;;;;14.63;100.00;101884.19;4950760;29;20125;-67
2022/09/11 08:11:24;;;;;;;29.67;15.82;;;;;;;14.65;100.00;101882.16;4950183;28;20114;-67
2022/09/11 08:13:52;;;;;;;25.17;14.77;;;;;;;14.73;100.00;101888.38;4950390;29;20058;-67
2022/09/11 08:16:18;;;;;;;32.60;16.85;;;;;;;14.77;100.00;101895.81;4950682;29;20042;-67
2022/09/11 08:18:44;;;;;;;31.77;17.95;;;;;;;14.66;100.00;101886.47;4951196;29;20042;-67
2022/09/11 08:21:11;;;;;;;27.25;15.90;;;;;;;14.76;100.00;101896.03;4950556;29;20030;-69
2022/09/11 08:23:39;;;;;;;27.30;16.80;;;;;;;14.83;100.00;101899.59;4950908;29;20041;-68
2022/09/11 08:26:10;;;;;;;29.88;18.00;;;;;;;14.91;100.00;101902.13;4942214;28;20062;-70
2022/09/11 08:28:37;;;;;;;28.17;15.55;;;;;;;15.02;100.00;101901.53;4936027;28;20035;-69
2022/09/11 08:31:04;;;;;;;31.90;17.17;;;;;;;15.08;100.00;101910.66;4936442;28;20070;-69
2022/09/11 08:33:32;;;;;;;31.65;17.63;;;;;;;15.09;100.00;101910.47;4937128;28;20027;-70
2022/09/11 08:35:58;;;;;;;30.40;16.85;;;;;;;15.15;100.00;101910.69;4936142;28;20031;-69
2022/09/11 08:38:24;;;;;;;30.17;18.38;;;;;;;15.20;100.00;101910.91;4936123;28;20457;-70
2022/09/11 08:40:50;;;;;;;31.85;18.35;;;;;;;15.19;100.00;101911.94;4935944;28;20035;-70
2022/09/11 08:43:43;;;;;;;30.23;17.92;;;;;;;15.24;100.00;101918.34;4936327;28;20555;-70
2022/09/11 08:46:09;;;;;;;30.02;17.08;;;;;;;15.25;100.00;101924.59;4936704;28;20027;-70
2022/09/11 08:48:42;;;;;;;29.95;17.98;;;;;;;15.27;100.00;101922.50;4936401;28;20043;-69
2022/09/11 08:51:13;;;;;;;29.35;19.17;;;;;;;15.28;100.00;101924.16;4934758;28;20463;-69
2022/09/11 08:53:38;;;;;;;31.57;19.60;;;;;;;15.24;100.00;101915.66;4936528;28;20027;-69
2022/09/11 08:56:10;;;;;;;30.73;18.00;;;;;;;15.39;100.00;101928.13;4936423;28;20302;-69
2022/09/11 08:58:43;;;;;;;;;;;;;;;15.47;100.00;101933.31;4936749;28;20028;-70
2022/09/11 09:01:27;;;;;;;29.10;17.45;;;;;;;15.48;100.00;101932.28;4936432;28;19943;-69
2022/09/11 09:04:15;;;;;;;30.90;16.55;;;;;;;15.50;100.00;101919.47;4935138;28;20016;-69
2022/09/11 09:07:06;;;;;;;31.30;18.88;;;;;;;15.51;100.00;101929.19;4917417;28;20122;-71
2022/09/11 09:09:37;;;;;;;30.27;19.05;;;;;;;15.53;100.00;101933.31;4936708;28;20037;-72
2022/09/11 09:12:46;;;;;;;28.60;17.95;;;;;;;15.60;100.00;101933.34;4935716;28;20051;-73
2022/09/11 09:15:17;;;;;;;31.23;17.60;;;;;;;15.70;100.00;101928.44;4936278;28;20051;-71
2022/09/11 09:17:52;;;;;;;29.05;17.70;;;;;;;15.87;100.00;101928.88;4935366;28;20114;-73
2022/09/11 09:20:27;;;;;;;30.48;20.42;;;;;;;16.07;100.00;101930.78;4935867;28;20479;-70
2022/09/11 09:23:24;;;;;;;31.13;17.75;;;;;;;16.29;100.00;101931.38;4936137;28;20463;-70
2022/09/11 09:25:55;;;;;;;33.30;20.52;;;;;;;16.56;100.00;101941.09;4920801;28;20050;-69
2022/09/11 09:28:31;;;;;;;;;;;;;;;16.86;100.00;101940.63;4939665;28;20027;-69
2022/09/11 09:30:59;;;;;;;30.48;18.00;;;;;;;16.85;100.00;101944.38;4936031;28;19918;-68
2022/09/11 09:33:39;;;;;;;26.73;16.20;;;;;;;16.91;100.00;101945.41;4953752;28;20027;-67
2022/09/11 09:36:16;;;;;;;26.80;17.00;;;;;;;17.01;100.00;101945.78;4935650;29;20032;-67
2022/09/11 09:38:42;;;;;;;32.10;18.13;;;;;;;17.14;100.00;101936.81;4953544;29;20045;-67
2022/09/11 09:41:38;;;;;;;29.25;18.40;;;;;;;17.25;100.00;101944.22;4953703;29;20035;-68
2022/09/11 09:44:26;;;;;;;28.10;17.02;;;;;;;17.40;100.00;101944.78;4935461;29;20066;-67
2022/09/11 09:46:54;;;;;;;27.75;17.08;;;;;;;17.33;98.86;101946.69;4935305;29;20040;-68
2022/09/11 09:49:32;;;;;;;25.42;16.52;;;;;;;17.43;100.00;101930.03;4935461;29;20044;-67
2022/09/11 09:52:01;;;;;;;28.27;16.45;;;;;;;17.63;100.00;101948.78;4936198;29;20387;-67
2022/09/11 09:54:29;;;;;;;30.63;17.45;;;;;;;17.73;99.41;101944.56;4953596;29;20027;-67
2022/09/11 09:57:05;;;;;;;27.67;19.00;;;;;;;17.88;97.79;101940.78;4953432;29;20372;-67
2022/09/11 09:59:40;;;;;;;27.02;16.08;;;;;;;18.04;97.36;101937.56;4936023;29;20035;-69
2022/09/11 10:02:06;;;;;;;28.17;18.50;;;;;;;18.11;95.42;101941.03;4938256;29;20035;-70
2022/09/11 10:04:32;;;;;;;27.00;17.63;;;;;;;18.29;98.34;101944.84;4953291;28;20046;-69
2022/09/11 10:07:20;;;;;;;28.55;18.38;;;;;;;18.34;95.17;101947.72;4938731;29;20567;-70
2022/09/11 10:09:55;;;;;;;26.83;16.73;;;;;;;18.43;96.31;101943.66;4935030;29;20487;-74
2022/09/11 10:12:24;;;;;;;27.05;17.30;;;;;;;18.47;93.12;101950.28;4934848;29;20053;-69
2022/09/11 10:14:53;;;;;;;27.15;17.95;;;;;;;18.50;92.87;101939.03;4934965;29;20054;-71
2022/09/11 10:17:30;;;;;;;25.55;18.05;;;;;;;18.61;92.05;101940.97;4953048;29;20069;-71
2022/09/11 10:20:12;;;;;;;26.52;16.10;;;;;;;18.75;93.87;101948.97;4953008;29;20391;-71
2022/09/11 10:22:38;;;;;;;26.88;17.90;;;;;;;18.79;91.21;101953.72;4952850;29;20062;-70
2022/09/11 10:25:44;;;;;;;25.58;17.00;;;;;;;18.89;92.81;101944.25;4953026;29;20483;-70
2022/09/11 10:28:14;;;;;;;24.45;17.17;;;;;;;18.94;88.95;101944.41;4942395;29;20121;-71
2022/09/11 10:30:46;;;;;;;27.95;16.50;;;;;;;19.01;87.48;101948.69;4952834;28;20023;-75
2022/09/11 10:33:38;;;;;;;25.50;16.77;;;;;;;19.04;90.17;101950.09;4934528;29;20027;-71
2022/09/11 10:36:07;;;;;;;24.83;14.95;;;;;;;19.13;88.64;101943.34;4945136;28;20047;-71
2022/09/11 10:38:46;;;;;;;23.92;15.90;;;;;;;19.22;89.39;101943.88;4952801;29;20046;-70
2022/09/11 10:41:11;;;;;;;26.58;17.52;;;;;;;19.22;86.84;101954.69;4952984;29;20057;-70
2022/09/11 10:43:46;;;;;;;24.70;16.25;;;;;;;19.17;87.24;101949.13;4952812;29;20416;-70
2022/09/11 10:46:18;;;;;;;27.73;17.83;;;;;;;19.08;85.99;101940.50;4952643;29;20043;-70
2022/09/11 10:48:53;;;;;;;26.48;17.67;;;;;;;18.98;87.88;101941.03;4952571;29;20042;-70
2022/09/11 10:51:18;;;;;;;22.80;14.70;;;;;;;18.85;88.18;101941.19;4952540;28;20058;-70
2022/09/11 10:53:58;;;;;;;24.85;16.85;;;;;;;18.86;89.30;101942.00;4952372;29;20486;-70
2022/09/11 10:56:25;;;;;;;24.77;16.33;;;;;;;18.85;89.27;101937.66;4952559;29;20062;-70
2022/09/11 10:58:56;;;;;;;27.95;17.35;;;;;;;18.80;88.05;101933.75;4935110;29;20438;-70
2022/09/11 11:01:22;;;;;;;25.30;17.35;;;;;;;18.83;88.35;101938.69;4952423;28;20035;-70
2022/09/11 11:03:47;;;;;;;23.13;15.93;;;;;;;18.88;87.36;101934.50;4952430;29;20069;-70
2022/09/11 11:07:10;;;;;;;23.35;16.67;;;;;;;18.90;90.53;101937.81;4952326;29;20039;-70
2022/09/11 11:10:04;;;;;;;23.77;17.33;;;;;;;18.89;89.36;101937.00;4874080;29;20049;-70
2022/09/11 11:12:46;;;;;;;25.20;16.33;;;;;;;19.07;86.16;101938.84;4874338;29;20659;-71
2022/09/11 11:15:18;;;;;;;;;;;;;;;19.35;89.09;101934.75;4934197;28;20043;-70
2022/09/11 11:18:00;;;;;;;22.48;14.27;;;;;;;19.58;85.39;101945.66;4952006;29;20000;-70
2022/09/11 11:20:38;;;;;;;24.10;15.07;;;;;;;19.72;82.02;101938.22;4952005;29;20106;-70